createdAt,value
2019-06-26T00:09:32.317Z,78.06
2019-06-26T00:19:32.311Z,78.32
2019-06-26T00:29:32.333Z,78.80
2019-06-26T00:39:32.340Z,78.86
2019-06-26T00:49:32.338Z,79.75
2019-06-26T00:59:32.407Z,81.14
2019-06-26T01:09:32.365Z,81.90
2019-06-26T01:19:32.312Z,82.12
2019-06-26T01:29:32.755Z,83.09
2019-06-26T01:39:32.379Z,84.50
2019-06-26T01:49:32.420Z,86.03
2019-06-26T01:59:32.423Z,87.05
2019-06-26T02:09:32.364Z,87.91
2019-06-26T02:19:32.344Z,87.90
2019-06-26T02:29:32.417Z,88.42
2019-06-26T02:39:32.387Z,89.15
2019-06-26T02:49:32.336Z,90.66
2019-06-26T02:59:32.409Z,90.96
2019-06-26T03:09:32.333Z,91.08
2019-06-26T03:19:32.455Z,91.57
2019-06-26T03:29:32.409Z,92.09
2019-06-26T03:39:32.341Z,92.45
2019-06-26T03:49:32.475Z,93.11
2019-06-26T03:59:32.443Z,92.88
2019-06-26T04:09:32.364Z,93.19
2019-06-26T04:19:32.424Z,92.29
2019-06-26T04:29:32.413Z,90.23
2019-06-26T04:39:32.389Z,88.27
2019-06-26T04:49:32.483Z,88.04
2019-06-26T04:59:32.399Z,87.67
2019-06-26T05:09:32.418Z,87.03
2019-06-26T05:19:32.384Z,85.84
2019-06-26T05:29:32.548Z,85.98
2019-06-26T05:39:32.517Z,85.06
2019-06-26T05:49:32.558Z,83.92
2019-06-26T05:59:32.480Z,80.96
2019-06-26T06:09:32.761Z,78.09
2019-06-26T06:19:32.529Z,74.77
2019-06-26T06:29:32.507Z,73.57
2019-06-26T06:39:32.542Z,73.14
2019-06-26T06:49:33.252Z,72.55
2019-06-26T06:59:32.569Z,67.28
2019-06-26T07:09:32.583Z,65.69
2019-06-26T07:19:32.563Z,62.98
2019-06-26T07:29:33.334Z,63.55
2019-06-26T07:39:32.582Z,61.48
2019-06-26T07:49:32.539Z,60.52
2019-06-26T07:59:32.621Z,59.84
2019-06-26T08:09:32.585Z,58.33
2019-06-26T08:19:32.548Z,57.77
2019-06-26T08:29:33.480Z,54.10
2019-06-26T08:39:32.619Z,52.46
2019-06-26T08:49:32.776Z,50.81
2019-06-26T08:59:32.621Z,49.97
2019-06-26T09:09:32.587Z,48.46
2019-06-26T09:19:32.559Z,48.62
2019-06-26T09:29:32.620Z,49.74
2019-06-26T09:39:32.572Z,49.19
2019-06-26T09:49:32.762Z,47.18
2019-06-26T09:59:32.498Z,43.37
2019-06-26T10:09:32.766Z,45.18
2019-06-26T10:19:32.643Z,42.75
2019-06-26T10:29:32.644Z,42.93
2019-06-26T10:39:32.616Z,42.74
2019-06-26T10:49:33.608Z,42.24
2019-06-26T10:59:32.605Z,40.35
2019-06-26T11:09:32.711Z,41.64
2019-06-26T11:19:43.354Z,41.61
2019-06-26T11:29:32.760Z,42.10
2019-06-26T11:39:32.702Z,41.49
2019-06-26T11:49:33.721Z,41.51
2019-06-26T11:59:32.868Z,42.36
2019-06-26T12:09:33.646Z,40.65
2019-06-26T12:19:34.249Z,39.90
2019-06-26T12:29:33.097Z,39.48
2019-06-26T12:39:32.691Z,40.24
2019-06-26T12:49:32.665Z,40.71
2019-06-26T12:59:32.749Z,40.22
2019-06-26T13:09:32.729Z,40.22
2019-06-26T13:19:33.281Z,37.74
2019-06-26T13:29:33.142Z,36.69
2019-06-26T13:39:32.614Z,37.14
2019-06-26T13:49:32.790Z,37.72
2019-06-26T13:59:32.734Z,38.42
2019-06-26T14:09:32.715Z,39.95
2019-06-26T14:19:32.792Z,40.00
2019-06-26T14:29:40.342Z,39.62
2019-06-26T22:05:17.516Z,72.22
2019-06-26T22:15:17.585Z,72.62
2019-06-26T22:25:17.488Z,72.95
2019-06-26T22:35:17.617Z,72.81
2019-06-26T22:45:17.677Z,73.09
2019-06-26T22:55:17.653Z,73.36
2019-06-26T23:05:17.613Z,73.70
2019-06-26T23:15:17.593Z,74.26
2019-06-26T23:25:17.665Z,74.76
2019-06-26T23:35:17.545Z,74.28
2019-06-26T23:45:17.597Z,75.37
2019-06-26T23:55:17.638Z,76.49
